الصفحة الرئيسية
METAR-TAF:

METAR-TAF

مطار :

مطار سيشل الدولي

فيكتوريا, ماهيه, سيشيل

دائرة عرض: 04-40S, خط طول: 055-31E, ارتفاع: 3 متر

مراقبة الطقس الحالي

تاريخ ووقت الإصدار 53 دقيقة قبل الساعة 02:00UTC
ريح 9 عقدة من الجنوب/الجنوب الشرقي, الاتجاه يتراوح بين الشرق/الجنوب الشرقي و الجنوب/الجنوب الغربي
درجة الحرارة 26°درجة مئوية
الرطوبة 89%
ضغط 1010 hPa
الرؤية 10 كم أو أكثر
غيوم متفرقة على ارتفاع 1800 قدم

METAR: FSIA 190200Z 16009KT 120V200 9999 SCT018 26/24 Q1010 NOSIG

زمن: 06:53 (02:53 UTC)

توقعات

تاريخ ووقت الإصدار 3ساعات و 53 دقيقة قبل الساعة 23:00UTC
التوقعات صالحة من19 الساعة 00 UTC إلى 19 الساعة 24 UTC
ريح 10 عقدة من الجنوب
الرؤية 10 كم أو أكثر
غيوم متفرقة على ارتفاع 2000 قدم

TAF: FSIA 182300Z 1900/1924 17010KT 9999 SCT020

أرصاد الطقس والتوقعات من أكثر من 4000 مطار (تقارير الطقس للمطار METAR والتنبؤ بالطقس بالمطارTAF).

المحطات المتاحة هي النقط الصفراء والحمراء على الخريطة.

حرك المؤشر فوق النقطة لمعرفة اسم المحطة.

ثم انقر لمعرفة أرصاد وتوقعات الطقس.

لتغيير الخارطة: اضغط على الأزرار الخضراء مع رمز الصليب الأسود للتكبير. على الزر الأخضر مع شرطة للتصغير، أو على الأسهم الخضراء للخرائط المجاورة.


METAR-TAF: